Cala Pula — IBID — position and weather

sailwx.info

Track history (hours):
 
Tides and Currents Weather Stations Pressure Air Temp Water Temp Dewpoint Dewpoint Depression Visibility Wind Speed Wind Dir Waves Ship Positions

Cala Pula

Last reported at 2014-Oct-05 02:30 UTC. Time now 2014-Oct-24 10:19 UTC.
Position N 36°00' W 005°23'.
Warning: this ship's position is 19 days out of date.

Length 189 m; draft 6.8 m.

Type: Cargo ship. MMSI: 247585000.

Date/timePositionNaut miles runAvg speedWind from/ knotsBaromVisibWave heightAir tempDewpointWater temp
2014-Oct-05 02:30N 36°00' W 005°23'23618.2
2014-Oct-04 13:30N 37°24' W 000°47'1919.6
2014-Oct-04 12:33N 37°37' W 000°30'17519.4
2014-Oct-04 03:33N 39°46' E 002°01'1919.0
2014-Oct-04 02:33N 39°59' E 002°19'1919.2
2014-Oct-04 01:33N 40°12' E 002°37'2019.7
2014-Oct-04 00:33N 40°25' E 002°56'2519.4
2014-Oct-03 23:17N 40°42' E 003°20'7219.3
2014-Oct-03 19:33N 41°32' E 004°29'2419.8
2014-Oct-03 18:20N 41°48' E 004°54'1819.1
2014-Oct-03 17:25N 41°59' E 005°12'18 8.7
2014-Oct-03 15:23N 42°11' E 005°29'1516.4
2014-Oct-03 14:27N 42°23' E 005°43'5719.5
2014-Oct-03 11:32N 43°01' E 006°40'2020.3
2014-Oct-03 10:33N 43°13' E 007°01'2620.0
2014-Oct-03 09:14N 43°29' E 007°31'6210.6
2014-Oct-03 03:23N 44°16' E 008°27'0 0.0
2014-Oct-03 02:29N 44°16' E 008°27'0 0.0
2014-Oct-03 00:33N 44°16' E 008°27'0 0.0
2014-Oct-02 23:33N 44°16' E 008°27'0 0.0
2014-Oct-02 20:04N 44°16' E 008°27'0 0.0
2014-Oct-02 19:28N 44°16' E 008°27'0 0.0
2014-Oct-02 16:07N 44°16' E 008°27'0 0.0
2014-Oct-02 11:31N 44°16' E 008°27'1 0.1
2014-Oct-02 04:16N 44°16' E 008°28'4 5.0
2014-Oct-02 03:25N 44°13' E 008°31'1414.9
2014-Oct-02 02:30N 44°01' E 008°41'1818.9
2014-Oct-02 01:33N 43°46' E 008°55'1919.5
2014-Oct-02 00:33N 43°30' E 009°10'  
2014-Sep-28 22:12N 40°42' E 028°60'4 6.7
2014-Sep-28 21:33N 40°43' E 029°06'1313.4
2014-Sep-28 20:33N 40°45' E 029°23'4 0.8
2014-Sep-28 15:25N 40°42' E 029°27'1 0.0
2014-Sep-27 07:09N 40°43' E 029°28'  
Track history (hours):
 
Tides and Currents Weather Stations Pressure Air Temp Water Temp Dewpoint Dewpoint Depression Visibility Wind Speed Wind Dir Waves Ship Positions

Cala Pula

Last reported at 2014-Oct-05 02:30 UTC. Time now 2014-Oct-24 10:19 UTC.
Position N 36°00' W 005°23'.
Warning: this ship's position is 19 days out of date.

Length 189 m; draft 6.8 m.

Type: Cargo ship. MMSI: 247585000.

Date/timePositionNaut miles runAvg speedWind from/ knotsBaromVisibWave heightAir tempDewpointWater temp
2014-Oct-05 02:30N 36°00' W 005°23'23618.2
2014-Oct-04 13:30N 37°24' W 000°47'1919.6
2014-Oct-04 12:33N 37°37' W 000°30'17519.4
2014-Oct-04 03:33N 39°46' E 002°01'1919.0
2014-Oct-04 02:33N 39°59' E 002°19'1919.2
2014-Oct-04 01:33N 40°12' E 002°37'2019.7
2014-Oct-04 00:33N 40°25' E 002°56'2519.4
2014-Oct-03 23:17N 40°42' E 003°20'7219.3
2014-Oct-03 19:33N 41°32' E 004°29'2419.8
2014-Oct-03 18:20N 41°48' E 004°54'1819.1
2014-Oct-03 17:25N 41°59' E 005°12'18 8.7
2014-Oct-03 15:23N 42°11' E 005°29'1516.4
2014-Oct-03 14:27N 42°23' E 005°43'5719.5
2014-Oct-03 11:32N 43°01' E 006°40'2020.3
2014-Oct-03 10:33N 43°13' E 007°01'2620.0
2014-Oct-03 09:14N 43°29' E 007°31'6210.6
2014-Oct-03 03:23N 44°16' E 008°27'0 0.0
2014-Oct-03 02:29N 44°16' E 008°27'0 0.0
2014-Oct-03 00:33N 44°16' E 008°27'0 0.0
2014-Oct-02 23:33N 44°16' E 008°27'0 0.0
2014-Oct-02 20:04N 44°16' E 008°27'0 0.0
2014-Oct-02 19:28N 44°16' E 008°27'0 0.0
2014-Oct-02 16:07N 44°16' E 008°27'0 0.0
2014-Oct-02 11:31N 44°16' E 008°27'1 0.1
2014-Oct-02 04:16N 44°16' E 008°28'4 5.0
2014-Oct-02 03:25N 44°13' E 008°31'1414.9
2014-Oct-02 02:30N 44°01' E 008°41'1818.9
2014-Oct-02 01:33N 43°46' E 008°55'1919.5
2014-Oct-02 00:33N 43°30' E 009°10'  
2014-Sep-28 22:12N 40°42' E 028°60'4 6.7
2014-Sep-28 21:33N 40°43' E 029°06'1313.4
2014-Sep-28 20:33N 40°45' E 029°23'4 0.8
2014-Sep-28 15:25N 40°42' E 029°27'1 0.0
2014-Sep-27 07:09N 40°43' E 029°28'  

Dump ship's entire track history